aviador You're here:

KPOV Decoded Metar

in
Report Time2017-09-24 12:00:00
UTC Time2017-09-24 12:12:25
Flight Rules vfr VFR
WindCalm
Visibility9999 m
Phenomena:N/A
Clouds:N/A
CeilingNone
Temp15°C
Dew Point15°C (100% RH)
QNH1023 hPa
Raw Report
METAR KPOV 241200Z AUTO 00000KT 7SM CLR 15/15 A3020 RMK AO2 T01520145
10190 20147=

Extra information for KPOV:More info

Social comments